Time;durP1;ratioP1;P1;durP2;ratioP2;P2;SDS_P1;SDS_P2;PMS_P1;PMS_P2;Temp;Humidity;BMP_temperature;BMP_pressure;BME280_temperature;BME280_humidity;BME280_pressure;Samples;Min_cycle;Max_cycle;Signal;HPM_P1;HPM_P2
2021/07/10 00:00:48;;;;;;;19.37;17.37;;;16.80;99.90;;;;;;4864808;29;20598;-90
2021/07/10 00:03:19;;;;;;;19.80;18.07;;;16.80;99.90;;;;;;4864107;29;20874;-92
2021/07/10 00:05:52;;;;;;;18.37;16.77;;;16.70;99.90;;;;;;4864200;29;20545;-91
2021/07/10 00:08:21;;;;;;;20.50;18.30;;;16.60;99.90;;;;;;4865977;29;20498;-92
2021/07/10 00:10:50;;;;;;;18.30;16.43;;;16.60;99.90;;;;;;4872814;29;20489;-91
2021/07/10 00:13:19;;;;;;;18.90;17.20;;;16.60;99.90;;;;;;4869615;29;20479;-91
2021/07/10 00:15:51;;;;;;;18.30;16.50;;;16.60;99.90;;;;;;4864510;29;20962;-91
2021/07/10 00:18:30;;;;;;;17.87;15.63;;;16.60;99.90;;;;;;4862593;29;20466;-92
2021/07/10 00:24:06;;;;;;;21.97;18.30;;;16.50;99.90;;;;;;4881449;29;20468;-89
2021/07/10 00:26:36;;;;;;;18.40;16.70;;;16.40;99.90;;;;;;4884083;29;20466;-91
2021/07/10 00:29:05;;;;;;;19.83;18.07;;;16.40;99.90;;;;;;4866038;29;20545;-91
2021/07/10 00:31:36;;;;;;;18.77;17.00;;;16.40;99.90;;;;;;4863435;29;20528;-91
2021/07/10 00:34:15;;;;;;;23.80;16.90;;;16.40;99.90;;;;;;4863323;29;20503;-91
2021/07/10 00:37:03;;;;;;;19.07;16.80;;;16.40;99.90;;;;;;4863746;29;20494;-91
2021/07/10 00:39:40;;;;;;;19.20;17.50;;;16.40;99.90;;;;;;4844702;29;20489;-91
2021/07/10 00:42:19;;;;;;;18.90;17.10;;;16.30;99.90;;;;;;4844939;29;20486;-91
2021/07/10 00:44:54;;;;;;;20.17;18.30;;;16.30;99.90;;;;;;4857309;29;20985;-90
2021/07/10 00:47:27;;;;;;;19.67;17.80;;;16.30;99.90;;;;;;4863244;29;20535;-90
2021/07/10 00:50:12;;;;;;;19.80;17.83;;;16.20;99.90;;;;;;4864594;29;20512;-90
2021/07/10 00:52:39;;;;;;;18.10;16.50;;;16.20;99.90;;;;;;4864183;29;20445;-89
2021/07/10 00:55:07;;;;;;;20.90;18.80;;;16.20;99.90;;;;;;4866565;29;20462;-90
2021/07/10 00:57:35;;;;;;;18.33;16.63;;;16.10;99.90;;;;;;4863430;29;20487;-90
2021/07/10 01:00:04;;;;;;;19.23;17.33;;;16.20;99.90;;;;;;4863729;29;20484;-90
2021/07/10 01:02:31;;;;;;;18.33;16.57;;;16.10;99.90;;;;;;4864033;29;20489;-89
2021/07/10 01:04:59;;;;;;;18.40;16.70;;;16.10;99.90;;;;;;4863010;29;20461;-90
2021/07/10 01:07:26;;;;;;;20.53;18.37;;;16.10;99.90;;;;;;4863129;29;20864;-90
2021/07/10 01:09:53;;;;;;;19.17;17.57;;;16.10;99.90;;;;;;4863394;29;20984;-89
2021/07/10 01:12:20;;;;;;;19.83;18.03;;;16.00;99.90;;;;;;4862818;29;20458;-89
2021/07/10 01:14:46;;;;;;;20.63;18.50;;;16.00;99.90;;;;;;4867577;29;21022;-88
2021/07/10 01:17:13;;;;;;;20.73;18.73;;;15.90;99.90;;;;;;4868949;29;20465;-89
2021/07/10 01:19:40;;;;;;;18.23;16.67;;;15.90;99.90;;;;;;4869222;29;20480;-89
2021/07/10 01:22:10;;;;;;;20.27;18.30;;;15.90;99.90;;;;;;4869774;29;20489;-89
2021/07/10 01:24:37;;;;;;;16.47;14.93;;;15.90;99.90;;;;;;4862513;29;20465;-90
2021/07/10 01:27:04;;;;;;;19.03;17.37;;;15.90;99.90;;;;;;4862040;29;20460;-89
2021/07/10 01:29:31;;;;;;;20.83;18.47;;;16.00;99.90;;;;;;4861433;29;20529;-91
2021/07/10 01:32:00;;;;;;;20.87;19.07;;;16.00;99.90;;;;;;4864849;29;20433;-89
2021/07/10 01:34:29;;;;;;;19.80;17.90;;;15.90;99.90;;;;;;4875840;29;20465;-90
2021/07/10 01:36:56;;;;;;;21.40;19.20;;;15.90;99.90;;;;;;4864010;29;20807;-90
2021/07/10 01:39:24;;;;;;;20.63;18.60;;;15.80;99.90;;;;;;4862912;29;20485;-91
2021/07/10 01:41:53;;;;;;;19.43;17.70;;;15.80;99.90;;;;;;4863292;29;20472;-91
2021/07/10 01:44:20;;;;;;;19.67;17.83;;;15.80;99.90;;;;;;4864052;29;20837;-90
2021/07/10 01:46:47;;;;;;;20.43;18.30;;;15.80;99.90;;;;;;4862968;29;20465;-89
2021/07/10 01:49:14;;;;;;;20.23;18.10;;;15.80;99.90;;;;;;4874811;29;20461;-87
2021/07/10 01:51:41;;;;;;;22.43;18.30;;;15.80;99.90;;;;;;4878793;29;20454;-89
2021/07/10 01:54:07;;;;;;;20.30;18.50;;;15.80;99.90;;;;;;4862664;29;20916;-90
2021/07/10 01:56:35;;;;;;;19.73;17.93;;;15.80;99.90;;;;;;4862335;29;20445;-89
2021/07/10 01:59:02;;;;;;;19.80;18.00;;;15.70;99.90;;;;;;4862453;29;20484;-90
2021/07/10 02:01:32;;;;;;;19.63;17.43;;;15.70;99.90;;;;;;4874140;29;20520;-89
2021/07/10 02:03:58;;;;;;;19.13;17.40;;;15.70;99.90;;;;;;4884539;29;20488;-90
2021/07/10 02:06:25;;;;;;;21.03;19.13;;;15.60;99.90;;;;;;4877396;29;20455;-88
2021/07/10 02:08:52;;;;;;;19.67;17.77;;;15.60;99.90;;;;;;4876653;29;20477;-89
2021/07/10 02:11:19;;;;;;;20.60;18.67;;;15.50;99.90;;;;;;4880192;29;20456;-89
2021/07/10 02:13:47;;;;;;;20.33;18.27;;;15.40;99.90;;;;;;4885401;29;20418;-88
2021/07/10 02:16:15;;;;;;;21.13;19.03;;;15.40;99.90;;;;;;4871049;29;20453;-90
2021/07/10 02:18:42;;;;;;;21.63;19.63;;;15.40;99.90;;;;;;4863689;29;20484;-89
2021/07/10 02:21:09;;;;;;;21.40;19.30;;;15.40;99.90;;;;;;4863331;29;20449;-90
2021/07/10 02:23:36;;;;;;;21.47;19.43;;;15.30;99.90;;;;;;4868705;29;20519;-90
2021/07/10 02:26:03;;;;;;;20.40;18.50;;;15.30;99.90;;;;;;4873510;29;20766;-90
2021/07/10 02:28:29;;;;;;;21.20;19.10;;;15.40;99.90;;;;;;4863505;29;20853;-89
2021/07/10 02:30:58;;;;;;;20.40;18.50;;;15.40;99.90;;;;;;4862182;29;20448;-90
2021/07/10 02:33:24;;;;;;;21.27;19.07;;;15.40;99.90;;;;;;4861280;29;20959;-90
2021/07/10 02:35:51;;;;;;;21.30;19.47;;;15.30;99.90;;;;;;4860558;29;20457;-90
2021/07/10 02:38:18;;;;;;;22.73;20.30;;;15.30;99.90;;;;;;4876535;29;20438;-89
2021/07/10 02:40:45;;;;;;;20.87;18.83;;;15.20;99.90;;;;;;4882881;29;20445;-88
2021/07/10 02:43:11;;;;;;;20.67;18.70;;;15.20;99.90;;;;;;4887587;29;20483;-88
2021/07/10 02:45:39;;;;;;;20.83;18.93;;;15.20;99.90;;;;;;4870051;29;20434;-90
2021/07/10 02:48:07;;;;;;;19.77;17.97;;;15.30;99.90;;;;;;4883429;29;20453;-90
2021/07/10 02:50:34;;;;;;;21.47;18.80;;;15.20;99.90;;;;;;4887881;29;20441;-88
2021/07/10 02:53:01;;;;;;;21.10;18.90;;;15.20;99.90;;;;;;4869067;29;20442;-90
2021/07/10 02:55:30;;;;;;;19.90;18.10;;;15.20;99.90;;;;;;4864379;29;20456;-90
2021/07/10 02:57:56;;;;;;;20.53;18.60;;;15.10;99.90;;;;;;4864849;29;20492;-90
2021/07/10 03:00:25;;;;;;;18.93;17.00;;;15.00;99.90;;;;;;4863869;29;20473;-90
2021/07/10 03:02:52;;;;;;;18.53;16.80;;;15.00;99.90;;;;;;4864451;29;21025;-88
2021/07/10 03:05:20;;;;;;;21.37;19.40;;;15.10;99.90;;;;;;4864220;29;20832;-90
2021/07/10 03:07:47;;;;;;;22.67;20.43;;;15.00;99.90;;;;;;4865323;29;20460;-90
2021/07/10 03:10:16;;;;;;;21.83;19.90;;;15.00;99.90;;;;;;4870617;29;20569;-89
2021/07/10 03:12:44;;;;;;;29.33;24.37;;;14.90;99.90;;;;;;4876865;29;20441;-89
2021/07/10 03:15:13;;;;;;;27.07;24.23;;;14.90;99.90;;;;;;4868122;29;20450;-89
2021/07/10 03:17:40;;;;;;;22.70;20.50;;;14.90;99.90;;;;;;4864599;29;20457;-89
2021/07/10 03:20:08;;;;;;;26.70;24.00;;;14.90;99.90;;;;;;4864034;29;20468;-90
2021/07/10 03:22:36;;;;;;;28.07;24.23;;;14.90;99.90;;;;;;4870277;29;20486;-89
2021/07/10 03:25:05;;;;;;;28.80;23.90;;;14.80;99.90;;;;;;4866154;29;20827;-90
2021/07/10 03:27:32;;;;;;;26.73;23.97;;;14.80;99.90;;;;;;4869599;29;20469;-90
2021/07/10 03:29:58;;;;;;;26.67;22.13;;;14.90;99.90;;;;;;4865823;29;20854;-90
2021/07/10 03:32:25;;;;;;;27.10;24.17;;;14.90;99.90;;;;;;4864221;29;20460;-90
2021/07/10 03:34:52;;;;;;;28.53;23.00;;;14.90;99.90;;;;;;4863544;29;20453;-89
2021/07/10 03:37:19;;;;;;;26.33;22.43;;;14.90;99.90;;;;;;4864801;29;20448;-89
2021/07/10 03:39:47;;;;;;;26.67;22.93;;;14.90;99.90;;;;;;4854949;29;20847;-90
2021/07/10 03:42:14;;;;;;;26.93;24.27;;;15.00;99.90;;;;;;4864493;29;20446;-89
2021/07/10 03:44:41;;;;;;;28.93;23.60;;;15.00;99.90;;;;;;4868217;29;20480;-89
2021/07/10 03:47:08;;;;;;;28.40;25.53;;;15.00;99.90;;;;;;4866143;29;20464;-89
2021/07/10 04:23:23;;;;;;;26.70;23.97;;;14.90;99.90;;;;;;3598651;23;20837;-92
2021/07/10 04:25:50;;;;;;;27.07;24.40;;;14.90;99.90;;;;;;4897658;29;20502;-87
2021/07/10 04:28:31;;;;;;;23.70;21.40;;;14.90;99.90;;;;;;4870119;29;20453;-90
2021/07/10 04:30:58;;;;;;;23.57;21.17;;;14.90;99.90;;;;;;4870216;29;20521;-90
2021/07/10 04:33:28;;;;;;;25.60;22.97;;;15.00;99.90;;;;;;4865070;29;20547;-90
2021/07/10 04:35:57;;;;;;;24.13;21.93;;;15.00;99.90;;;;;;4874674;29;20822;-91
2021/07/10 04:38:28;;;;;;;26.33;23.77;;;15.00;99.90;;;;;;4881853;29;20453;-91
2021/07/10 05:08:29;;;;;;;25.77;23.10;;;15.30;99.90;;;;;;4902080;29;20487;-83
2021/07/10 05:10:55;;;;;;;26.83;23.87;;;15.30;99.90;;;;;;4905185;29;20447;-83
2021/07/10 05:13:22;;;;;;;24.53;22.13;;;15.30;99.90;;;;;;4904220;29;20495;-83
2021/07/10 05:15:49;;;;;;;24.63;22.33;;;15.30;99.90;;;;;;4905090;29;20667;-83
2021/07/10 05:18:15;;;;;;;22.30;20.30;;;15.40;99.90;;;;;;4906005;29;20453;-83
2021/07/10 05:20:42;;;;;;;21.17;19.23;;;15.70;99.90;;;;;;4904711;29;20459;-83
2021/07/10 05:23:09;;;;;;;21.13;19.00;;;16.20;99.90;;;;;;4904228;29;20516;-83
2021/07/10 05:25:37;;;;;;;17.67;16.17;;;16.70;99.90;;;;;;4903653;29;20475;-84
2021/07/10 05:28:04;;;;;;;17.63;16.03;;;17.30;99.90;;;;;;4904771;29;20452;-83
2021/07/10 05:30:31;;;;;;;16.87;15.27;;;17.60;99.90;;;;;;4904546;29;20934;-84
2021/07/10 05:32:57;;;;;;;15.67;14.37;;;18.10;99.90;;;;;;4905594;29;20451;-84
2021/07/10 05:35:26;;;;;;;14.20;13.10;;;18.60;99.90;;;;;;4904403;29;20456;-83
2021/07/10 05:37:53;;;;;;;15.73;14.47;;;19.30;99.90;;;;;;4907976;29;20512;-83
2021/07/10 05:40:20;;;;;;;14.37;13.07;;;19.60;99.90;;;;;;4907500;29;20447;-83
2021/07/10 05:42:49;;;;;;;15.43;13.93;;;20.20;99.90;;;;;;4907298;29;20947;-83
2021/07/10 05:45:17;;;;;;;14.10;12.77;;;20.60;99.90;;;;;;4906458;29;20491;-83
2021/07/10 05:47:43;;;;;;;12.97;11.83;;;20.90;99.90;;;;;;4906988;29;20580;-83
2021/07/10 05:50:11;;;;;;;12.40;11.40;;;21.40;99.90;;;;;;4931833;29;20427;-83
2021/07/10 05:52:39;;;;;;;11.47;10.57;;;21.80;99.90;;;;;;4924853;29;20453;-84
2021/07/10 05:55:07;;;;;;;12.90;11.80;;;22.30;99.90;;;;;;4908443;29;20459;-83
2021/07/10 05:57:34;;;;;;;11.97;11.00;;;22.70;99.90;;;;;;4920729;29;20778;-83
2021/07/10 06:00:02;;;;;;;12.97;11.87;;;22.80;99.90;;;;;;4924143;29;20490;-83
2021/07/10 06:02:28;;;;;;;10.83;9.93;;;23.00;99.90;;;;;;4909317;29;20443;-83
2021/07/10 06:04:55;;;;;;;11.00;10.17;;;23.10;99.90;;;;;;4906591;29;20581;-83
2021/07/10 06:07:22;;;;;;;10.43;9.63;;;23.20;99.90;;;;;;4906009;29;20479;-83
2021/07/10 06:09:49;;;;;;;10.77;9.90;;;23.40;99.90;;;;;;4906595;29;20443;-82
2021/07/10 06:12:15;;;;;;;11.37;10.53;;;23.50;99.10;;;;;;4906863;29;20458;-82
2021/07/10 06:14:42;;;;;;;11.07;10.17;;;24.10;98.60;;;;;;4906587;29;20442;-82
2021/07/10 06:17:10;;;;;;;10.63;9.83;;;24.40;97.90;;;;;;4921121;29;20468;-81
2021/07/10 06:19:37;;;;;;;10.60;9.63;;;24.80;96.70;;;;;;4924491;29;20826;-81
2021/07/10 06:22:04;;;;;;;10.67;9.87;;;25.00;95.80;;;;;;4920484;29;20451;-84
2021/07/10 06:24:32;;;;;;;11.00;9.97;;;25.20;95.30;;;;;;4912282;29;20497;-81
2021/07/10 06:26:58;;;;;;;10.33;9.50;;;25.40;94.50;;;;;;4922923;29;20471;-82
2021/07/10 06:29:25;;;;;;;9.83;9.00;;;25.60;93.20;;;;;;4921984;29;20437;-83
2021/07/10 06:31:52;;;;;;;8.53;7.93;;;25.60;93.00;;;;;;4915264;29;20464;-84
2021/07/10 06:34:21;;;;;;;8.43;7.83;;;25.60;92.70;;;;;;4912560;29;20449;-83
2021/07/10 06:36:47;;;;;;;9.13;8.33;;;25.90;92.20;;;;;;4911861;29;20466;-83
2021/07/10 06:39:14;;;;;;;9.70;8.97;;;25.90;92.20;;;;;;4911488;29;20451;-84
2021/07/10 06:41:41;;;;;;;8.37;7.67;;;26.20;91.50;;;;;;4911195;29;20942;-84
2021/07/10 06:44:08;;;;;;;11.90;8.17;;;26.20;91.20;;;;;;4912276;29;20494;-83
2021/07/10 06:46:34;;;;;;;8.60;8.00;;;26.70;90.90;;;;;;4912337;29;21056;-84
2021/07/10 06:49:01;;;;;;;8.27;7.57;;;27.00;89.20;;;;;;4912724;29;20475;-83
2021/07/10 06:51:29;;;;;;;8.77;7.83;;;27.30;87.70;;;;;;4909521;29;20490;-84
2021/07/10 06:53:56;;;;;;;9.00;8.17;;;27.40;87.80;;;;;;4915622;29;20449;-84
2021/07/10 06:56:23;;;;;;;9.17;8.47;;;27.60;85.90;;;;;;4917380;29;20468;-84
2021/07/10 06:58:50;;;;;;;8.90;8.20;;;27.50;85.90;;;;;;4911559;29;20467;-83
2021/07/10 07:01:16;;;;;;;8.57;7.87;;;27.90;86.10;;;;;;4910937;29;20455;-83
2021/07/10 07:03:43;;;;;;;8.00;7.40;;;28.10;85.40;;;;;;4918719;29;20490;-82
2021/07/10 07:06:10;;;;;;;9.90;8.13;;;28.50;83.50;;;;;;4924637;29;20455;-82
2021/07/10 07:08:38;;;;;;;7.97;7.37;;;28.90;82.30;;;;;;4916663;29;20440;-83
2021/07/10 07:11:05;;;;;;;8.70;7.93;;;29.10;80.60;;;;;;4921047;29;20451;-81
2021/07/10 07:13:31;;;;;;;7.73;7.23;;;28.90;80.60;;;;;;4918544;29;20450;-83
2021/07/10 07:15:58;;;;;;;8.57;7.87;;;29.20;79.30;;;;;;4912891;29;20458;-82
2021/07/10 07:18:25;;;;;;;8.07;7.37;;;29.20;79.20;;;;;;4913497;29;20453;-83
2021/07/10 07:20:51;;;;;;;7.67;7.03;;;29.20;78.40;;;;;;4912297;29;20502;-82
2021/07/10 07:23:18;;;;;;;7.20;6.30;;;28.90;78.70;;;;;;4911486;29;20446;-82
2021/07/10 07:25:46;;;;;;;8.50;6.87;;;29.20;78.40;;;;;;4912793;29;20471;-82
2021/07/10 07:28:13;;;;;;;8.23;7.63;;;28.50;79.20;;;;;;4914738;29;20522;-82
2021/07/10 07:30:41;;;;;;;7.50;6.80;;;29.20;78.00;;;;;;4915405;29;20451;-83
2021/07/10 07:33:08;;;;;;;7.60;7.00;;;30.00;76.80;;;;;;4915581;29;20483;-83
2021/07/10 07:35:35;;;;;;;7.47;6.87;;;29.90;74.80;;;;;;4915167;29;20478;-83
2021/07/10 07:38:01;;;;;;;6.60;6.20;;;29.90;73.60;;;;;;4924530;29;20437;-81
2021/07/10 07:40:28;;;;;;;7.43;6.93;;;30.00;73.30;;;;;;4929798;29;20483;-81
2021/07/10 07:42:56;;;;;;;6.90;6.30;;;30.30;71.90;;;;;;4911727;29;20439;-81
2021/07/10 07:45:23;;;;;;;7.70;7.00;;;30.60;68.70;;;;;;4908497;29;20478;-82
2021/07/10 07:47:51;;;;;;;5.97;5.50;;;31.00;69.70;;;;;;4910824;29;20451;-82
2021/07/10 07:50:20;;;;;;;6.60;6.03;;;31.20;67.10;;;;;;4909528;29;20455;-82
2021/07/10 07:52:47;;;;;;;6.20;5.70;;;31.50;64.50;;;;;;4916020;29;20439;-83
2021/07/10 07:55:14;;;;;;;6.83;6.33;;;31.10;64.50;;;;;;4914608;29;20979;-83
2021/07/10 07:57:42;;;;;;;7.40;6.87;;;31.10;64.80;;;;;;4914696;29;20471;-82
2021/07/10 08:00:13;;;;;;;6.90;6.40;;;31.20;63.80;;;;;;4914763;29;20983;-81
2021/07/10 08:02:40;;;;;;;6.60;6.10;;;31.00;64.70;;;;;;4929272;29;20463;-82
2021/07/10 08:05:08;;;;;;;7.37;6.67;;;31.00;64.20;;;;;;4916893;29;20890;-82
2021/07/10 08:07:35;;;;;;;6.80;6.30;;;31.00;65.80;;;;;;4914781;29;20467;-84
2021/07/10 08:10:01;;;;;;;7.33;6.83;;;31.50;61.30;;;;;;4915451;29;20827;-83
2021/07/10 08:12:28;;;;;;;7.20;6.70;;;31.20;61.50;;;;;;4914756;29;20444;-83
2021/07/10 08:14:55;;;;;;;7.70;7.03;;;31.00;63.00;;;;;;4914452;29;20459;-83
2021/07/10 08:17:23;;;;;;;6.93;6.33;;;31.10;65.90;;;;;;4913300;29;20475;-83
2021/07/10 08:19:49;;;;;;;6.90;6.50;;;31.50;64.50;;;;;;4914788;29;20458;-83
2021/07/10 08:22:16;;;;;;;6.67;6.07;;;32.10;62.40;;;;;;4913809;29;20956;-84
2021/07/10 08:24:43;;;;;;;6.90;6.30;;;32.80;61.70;;;;;;4914663;29;20482;-83
2021/07/10 08:27:10;;;;;;;4.97;4.57;;;31.80;61.00;;;;;;4910990;29;20836;-83
2021/07/10 08:29:37;;;;;;;5.80;5.33;;;31.30;59.70;;;;;;4914302;29;20455;-83
2021/07/10 08:32:04;;;;;;;5.13;4.77;;;31.70;60.10;;;;;;4912830;29;20447;-83
2021/07/10 08:34:32;;;;;;;5.47;5.07;;;31.80;59.60;;;;;;4912836;29;20451;-82
2021/07/10 08:37:00;;;;;;;5.10;4.80;;;31.50;60.80;;;;;;4917707;29;20464;-83
2021/07/10 08:39:27;;;;;;;6.43;6.03;;;31.80;58.80;;;;;;4911604;29;20479;-83
2021/07/10 08:41:53;;;;;;;7.40;6.83;;;32.50;60.50;;;;;;4913259;29;20447;-83
2021/07/10 08:44:21;;;;;;;6.80;6.20;;;32.90;58.80;;;;;;4913917;29;20483;-83
2021/07/10 08:46:48;;;;;;;7.67;6.37;;;33.10;57.90;;;;;;4913533;29;20503;-83
2021/07/10 08:49:16;;;;;;;7.00;6.40;;;32.00;58.80;;;;;;4913230;29;20522;-83
2021/07/10 08:51:46;;;;;;;6.50;6.00;;;31.10;59.70;;;;;;4913157;29;20443;-83
2021/07/10 08:54:14;;;;;;;5.80;5.40;;;31.50;60.70;;;;;;4912094;29;20439;-83
2021/07/10 08:56:41;;;;;;;6.87;6.37;;;32.30;59.40;;;;;;4909905;29;20471;-83
2021/07/10 08:59:09;;;;;;;6.27;5.77;;;32.20;57.90;;;;;;4910964;29;20457;-82
2021/07/10 09:01:36;;;;;;;5.77;5.27;;;32.50;58.20;;;;;;4912859;29;20937;-83
2021/07/10 09:04:05;;;;;;;6.57;6.13;;;33.20;58.10;;;;;;4912086;29;20479;-82
2021/07/10 09:06:32;;;;;;;5.57;5.27;;;33.70;57.60;;;;;;4911064;29;20479;-83
2021/07/10 09:09:03;;;;;;;5.67;5.20;;;35.00;55.50;;;;;;4916769;29;20459;-82
2021/07/10 09:11:30;;;;;;;5.70;5.20;;;34.50;53.90;;;;;;4916580;29;20438;-83
2021/07/10 09:13:57;;;;;;;7.20;6.70;;;34.40;54.80;;;;;;4911676;29;20443;-82
2021/07/10 09:16:26;;;;;;;6.53;6.03;;;34.20;55.20;;;;;;4909752;29;20467;-82
2021/07/10 09:18:55;;;;;;;5.47;5.03;;;32.70;55.30;;;;;;4913439;29;20435;-82
2021/07/10 09:21:39;;;;;;;5.80;5.30;;;32.60;58.30;;;;;;4911731;29;20450;-82
2021/07/10 09:24:10;;;;;;;5.20;4.80;;;32.80;57.20;;;;;;4911059;29;20487;-83
2021/07/10 09:26:43;;;;;;;4.57;4.20;;;34.00;55.70;;;;;;4908953;29;20475;-83
2021/07/10 09:29:12;;;;;;;5.00;4.50;;;34.90;52.70;;;;;;4915958;29;20452;-82
2021/07/10 09:31:40;;;;;;;4.03;3.73;;;34.60;52.30;;;;;;4922876;28;20444;-82
2021/07/10 09:34:14;;;;;;;4.57;3.90;;;34.40;50.90;;;;;;4912119;29;20453;-82
2021/07/10 09:36:53;;;;;;;4.30;4.00;;;34.10;51.00;;;;;;4912857;29;21020;-82
2021/07/10 09:39:24;;;;;;;4.17;3.77;;;34.00;50.20;;;;;;4912713;29;20454;-83
2021/07/10 09:41:50;;;;;;;4.20;3.90;;;34.20;51.10;;;;;;4919031;29;20451;-81
2021/07/10 09:44:18;;;;;;;4.53;3.90;;;34.10;49.60;;;;;;4917939;29;20483;-81
2021/07/10 09:46:45;;;;;;;3.90;3.60;;;33.10;49.90;;;;;;4919316;29;20470;-80
2021/07/10 09:49:20;;;;;;;4.63;4.33;;;32.80;53.20;;;;;;4920196;29;20457;-81
2021/07/10 09:51:47;;;;;;;4.23;3.90;;;31.90;51.90;;;;;;4912606;29;20532;-82
2021/07/10 09:54:14;;;;;;;3.57;3.37;;;30.70;54.20;;;;;;4911824;29;20458;-81
2021/07/10 09:57:01;;;;;;;3.67;3.37;;;30.40;55.10;;;;;;4910026;29;20471;-82
2021/07/10 09:59:28;;;;;;;3.87;3.57;;;31.30;53.00;;;;;;4912784;29;20454;-83
2021/07/10 10:01:55;;;;;;;4.10;3.80;;;32.00;51.60;;;;;;4911387;29;20440;-83
2021/07/10 10:04:25;;;;;;;4.07;3.77;;;32.10;52.70;;;;;;4911568;29;20501;-81
2021/07/10 10:06:52;;;;;;;4.17;3.87;;;33.30;52.60;;;;;;4913868;29;20475;-82
2021/07/10 10:09:21;;;;;;;3.37;3.07;;;33.70;51.40;;;;;;4924648;29;20448;-81
2021/07/10 10:11:50;;;;;;;4.40;3.90;;;32.60;49.70;;;;;;4914426;29;20463;-83
2021/07/10 10:14:19;;;;;;;3.97;3.67;;;32.20;50.60;;;;;;4909399;29;20479;-83
2021/07/10 10:16:47;;;;;;;4.00;3.80;;;32.80;53.10;;;;;;4912022;29;20462;-83
2021/07/10 10:19:15;;;;;;;3.67;3.37;;;34.00;49.80;;;;;;4912077;29;20450;-82
2021/07/10 10:21:43;;;;;;;3.63;3.33;;;33.40;50.50;;;;;;4911347;29;20487;-83
2021/07/10 10:24:11;;;;;;;3.53;3.23;;;33.70;50.40;;;;;;4904609;29;20886;-82
2021/07/10 10:26:38;;;;;;;3.23;3.03;;;34.00;48.90;;;;;;4913921;29;20465;-82
2021/07/10 10:29:05;;;;;;;3.07;2.87;;;34.90;47.30;;;;;;4913456;29;20530;-81
2021/07/10 10:31:33;;;;;;;3.37;3.07;;;34.50;46.20;;;;;;4918933;29;20454;-83
2021/07/10 10:34:01;;;;;;;3.10;2.90;;;34.50;46.70;;;;;;4918405;29;20506;-84
2021/07/10 10:36:28;;;;;;;2.83;2.70;;;35.00;48.20;;;;;;4915193;29;20846;-83
2021/07/10 10:38:55;;;;;;;3.30;3.00;;;35.30;46.50;;;;;;4914680;29;20447;-80
2021/07/10 10:41:22;;;;;;;3.30;3.00;;;35.70;46.20;;;;;;4921586;29;20446;-82
2021/07/10 10:43:54;;;;;;;3.57;3.30;;;36.30;46.10;;;;;;4901202;29;20447;-81
2021/07/10 10:46:23;;;;;;;3.40;3.10;;;37.40;43.70;;;;;;4901096;29;20498;-82
2021/07/10 10:48:53;;;;;;;3.37;3.17;;;38.90;42.10;;;;;;4903951;29;20491;-82
2021/07/10 10:51:31;;;;;;;3.00;2.70;;;39.90;39.40;;;;;;4908781;29;20460;-81
2021/07/10 10:54:26;;;;;;;2.67;2.47;;;37.60;39.10;;;;;;4889587;29;20456;-81
2021/07/10 10:56:53;;;;;;;7.40;3.77;;;35.60;42.50;;;;;;4885558;29;20559;-83
2021/07/10 10:59:37;;;;;;;3.23;2.90;;;35.60;44.10;;;;;;4885978;29;20457;-83
2021/07/10 11:02:24;;;;;;;3.13;2.93;;;34.90;43.70;;;;;;4904255;29;20463;-83
2021/07/10 11:05:02;;;;;;;3.27;3.07;;;35.80;43.20;;;;;;4907989;29;20852;-82
2021/07/10 13:25:15;;;;;;;3.57;3.27;;;34.70;44.60;;;;;;5541629;23;20503;-93
2021/07/10 17:11:46;;;;;;;3.83;3.40;;;26.40;60.40;;;;;;4949057;23;20489;-82
2021/07/10 17:14:13;;;;;;;4.30;4.00;;;26.40;59.90;;;;;;4873162;29;20444;-83
2021/07/10 17:16:39;;;;;;;3.70;3.30;;;26.20;60.60;;;;;;4873657;29;20438;-83
2021/07/10 17:19:06;;;;;;;4.87;4.37;;;26.20;60.90;;;;;;4873750;29;20448;-83
2021/07/10 17:21:33;;;;;;;3.47;3.17;;;26.10;61.30;;;;;;4871803;29;20463;-83
2021/07/10 17:24:03;;;;;;;3.83;3.53;;;26.10;62.00;;;;;;4872868;29;20448;-83
2021/07/10 17:26:30;;;;;;;3.30;3.00;;;26.00;61.20;;;;;;4871324;29;20572;-83
2021/07/10 17:28:58;;;;;;;3.60;3.30;;;25.90;61.80;;;;;;4872760;29;20540;-84
2021/07/10 17:31:34;;;;;;;3.53;3.33;;;25.80;61.70;;;;;;4888751;29;20468;-87
2021/07/10 17:34:02;;;;;;;3.80;3.30;;;25.70;63.10;;;;;;4888413;29;20450;-83
2021/07/10 17:36:28;;;;;;;4.63;4.23;;;25.60;63.10;;;;;;4875240;29;20455;-84
2021/07/10 17:38:55;;;;;;;4.70;4.30;;;25.60;62.90;;;;;;4874879;29;20448;-84
2021/07/10 17:41:24;;;;;;;4.87;4.03;;;25.60;63.70;;;;;;4874850;29;20468;-84
2021/07/10 17:43:51;;;;;;;4.90;4.40;;;25.60;64.40;;;;;;4885248;29;20542;-84
2021/07/10 17:46:19;;;;;;;5.10;4.60;;;25.50;65.00;;;;;;4867603;29;20489;-84
2021/07/10 17:48:45;;;;;;;4.00;3.70;;;25.50;64.70;;;;;;4866882;29;20464;-83
2021/07/10 17:51:14;;;;;;;4.03;3.73;;;25.50;64.50;;;;;;4867667;29;20481;-85
2021/07/10 17:53:41;;;;;;;4.43;4.13;;;25.50;64.90;;;;;;4866814;29;20556;-85
2021/07/10 17:56:08;;;;;;;3.90;3.50;;;25.30;65.70;;;;;;4875930;29;20446;-84
2021/07/10 17:58:34;;;;;;;5.30;4.90;;;25.30;66.00;;;;;;4878771;29;20456;-84
2021/07/10 18:01:02;;;;;;;6.00;4.30;;;25.30;66.30;;;;;;4874785;29;20991;-84
2021/07/10 18:03:30;;;;;;;4.33;4.03;;;25.30;66.60;;;;;;4887416;29;20457;-84
2021/07/10 18:05:57;;;;;;;3.87;3.57;;;25.20;66.90;;;;;;4876882;29;20533;-84
2021/07/10 18:08:24;;;;;;;5.30;4.80;;;25.20;67.00;;;;;;4870750;29;20453;-84
2021/07/10 18:10:51;;;;;;;5.50;5.00;;;25.20;67.30;;;;;;4873539;29;20479;-85
2021/07/10 18:13:18;;;;;;;5.40;4.90;;;25.20;67.20;;;;;;4877367;29;20437;-84
2021/07/10 18:15:45;;;;;;;10.37;5.47;;;25.20;67.70;;;;;;4868066;29;20453;-84
2021/07/10 18:18:12;;;;;;;5.37;4.93;;;25.20;67.60;;;;;;4867787;29;20457;-84
2021/07/10 18:20:40;;;;;;;4.10;3.80;;;25.20;67.80;;;;;;4865732;29;20484;-84
2021/07/10 18:23:07;;;;;;;4.73;4.30;;;25.10;67.90;;;;;;4867203;29;20464;-84
2021/07/10 18:25:34;;;;;;;4.63;4.20;;;25.00;68.60;;;;;;4866067;29;20501;-84
2021/07/10 18:28:01;;;;;;;4.77;4.40;;;25.00;69.10;;;;;;4870236;29;20463;-85
2021/07/10 18:30:27;;;;;;;5.10;4.70;;;25.00;69.50;;;;;;4875790;29;20452;-84
2021/07/10 18:32:54;;;;;;;6.90;4.10;;;24.90;70.30;;;;;;4860850;29;20488;-84
2021/07/10 18:35:22;;;;;;;4.47;4.10;;;24.80;71.10;;;;;;4865120;29;20464;-84
2021/07/10 18:37:53;;;;;;;4.23;3.90;;;24.70;71.90;;;;;;4878840;29;20546;-85
2021/07/10 18:40:23;;;;;;;5.23;4.83;;;24.70;72.50;;;;;;4882254;29;20452;-86
2021/07/10 18:42:52;;;;;;;5.43;4.63;;;24.60;73.70;;;;;;4870764;29;20460;-85
2021/07/10 18:45:20;;;;;;;4.60;4.30;;;24.40;73.80;;;;;;4878291;29;20452;-85
2021/07/10 18:47:47;;;;;;;5.20;4.80;;;24.40;74.40;;;;;;4862382;29;20453;-85
2021/07/10 18:50:15;;;;;;;5.20;4.80;;;24.40;75.20;;;;;;4861065;29;20458;-85
2021/07/10 18:52:42;;;;;;;5.60;5.10;;;24.30;75.30;;;;;;4861581;29;20472;-85
2021/07/10 18:55:12;;;;;;;4.50;4.10;;;24.30;76.50;;;;;;4861757;29;20471;-85
2021/07/10 18:57:39;;;;;;;7.23;5.37;;;24.40;76.80;;;;;;4868220;29;20826;-85
2021/07/10 19:00:08;;;;;;;7.13;5.40;;;24.30;76.30;;;;;;4883498;29;20445;-86
2021/07/10 19:02:35;;;;;;;5.03;4.63;;;24.30;76.40;;;;;;4864478;29;20477;-85
2021/07/10 19:05:02;;;;;;;4.77;4.37;;;24.30;77.30;;;;;;4873455;29;20472;-85
2021/07/10 19:07:29;;;;;;;5.13;4.73;;;24.40;77.90;;;;;;4884191;29;20477;-85
2021/07/10 19:09:55;;;;;;;4.47;4.07;;;24.40;77.80;;;;;;4863793;29;20453;-85
2021/07/10 19:12:24;;;;;;;5.13;4.63;;;24.50;78.10;;;;;;4865206;29;20480;-85
2021/07/10 19:14:51;;;;;;;5.00;4.53;;;24.50;78.20;;;;;;4874639;29;20460;-85
2021/07/10 19:17:18;;;;;;;5.10;4.70;;;24.50;78.40;;;;;;4878038;29;20449;-85
2021/07/10 19:19:45;;;;;;;5.20;4.80;;;24.50;78.90;;;;;;4881709;29;20434;-87
2021/07/10 19:22:12;;;;;;;5.40;5.00;;;24.50;78.70;;;;;;4872339;29;20477;-86
2021/07/10 19:24:39;;;;;;;6.93;5.40;;;24.40;78.80;;;;;;4867860;29;20471;-86
2021/07/10 19:27:07;;;;;;;5.30;4.90;;;24.40;78.70;;;;;;4868278;29;20489;-86
2021/07/10 19:29:37;;;;;;;4.60;4.30;;;24.30;79.50;;;;;;4867808;29;20551;-85
2021/07/10 19:32:05;;;;;;;5.43;5.03;;;24.30;80.10;;;;;;4867377;29;20498;-85
2021/07/10 19:34:33;;;;;;;6.37;5.50;;;24.20;80.10;;;;;;4867243;29;20460;-85
2021/07/10 19:37:00;;;;;;;5.83;5.33;;;24.20;80.60;;;;;;4866673;29;20465;-85
2021/07/10 19:39:30;;;;;;;5.43;5.03;;;24.20;80.70;;;;;;4865863;29;20469;-85
2021/07/10 19:41:57;;;;;;;4.83;4.43;;;24.20;80.60;;;;;;4866581;29;20485;-85
2021/07/10 19:44:24;;;;;;;5.60;5.10;;;24.20;81.30;;;;;;4867282;29;21018;-85
2021/07/10 19:46:54;;;;;;;6.73;6.13;;;24.30;81.00;;;;;;4865158;29;20485;-85
2021/07/10 19:49:21;;;;;;;7.27;6.67;;;24.30;81.80;;;;;;4866910;29;20962;-85